Data for 01/23/2013

Time Sea-Level Adjusted Pressure Absolute Pressure Temperature Relative Humidity Dew Point   
(mb) (inHg) (mb) (inHg) (C) (F) (%) (C) (F)
00:05 1020 30.12 849 25.07 -0.3 31.4 43 -11.5 11.3
00:10 1020 30.12 849 25.07 -0.2 31.6 41 -12 10.5
00:15 1020 30.12 849 25.07 -0.2 31.6 41 -11.9 10.7
00:20 1020 30.12 849 25.07 -0.3 31.5 42 -11.8 10.8
00:25 1020 30.12 849 25.07 -0.5 31.2 43 -11.6 11.1
00:30 1020 30.12 849 25.07 -0.6 31 46 -10.8 12.5
00:35 1020 30.12 849 25.07 -0.8 30.6 45 -11.4 11.6
00:40 1020 30.12 849 25.07 -0.8 30.5 45 -11.3 11.7
00:45 1020 30.12 849 25.07 -1 30.3 45 -11.4 11.4
00:50 1020 30.12 849 25.07 -0.7 30.8 46 -10.9 12.3
00:55 1020 30.12 849 25.07 -0.8 30.5 47 -10.7 12.7
01:00 1020 30.12 849 25.07 -1.4 29.4 48 -11.1 12
01:05 1020 30.12 849 25.07 -1.2 29.8 47 -11.1 11.9
01:10 1020 30.12 849 25.07 -0.9 30.4 44 -11.7 10.9
01:15 1020 30.12 849 25.07 -0.3 31.4 42 -11.8 10.7
01:20 1020 30.12 849 25.07 -0.3 31.5 44 -11 12.2
01:25 1020 30.12 849 25.07 -0.8 30.6 47 -10.7 12.8
01:30 1020 30.12 849 25.07 -1.2 29.8 47 -11.2 11.8
01:35 1020 30.12 849 25.07 -1.3 29.6 49 -10.8 12.6
01:40 1020 30.12 849 25.07 -1.3 29.7 48 -11 12.1
01:45 1020 30.12 849 25.07 -1 30.2 47 -11 12.2
01:50 1020 30.12 849 25.07 -1.1 30.1 48 -10.9 12.4
01:55 1020 30.12 849 25.07 -1.1 29.9 47 -11 12.2
02:00 1020 30.12 849 25.07 -1.4 29.6 49 -10.7 12.8
02:05 1020 30.12 849 25.07 -1.5 29.3 47 -11.4 11.4
02:10 1020 30.12 849 25.07 -1.2 29.9 47 -11.2 11.8
02:15 1020 30.12 849 25.07 -1.1 30 47 -11.1 12
02:20 1020 30.12 849 25.07 -1.3 29.7 47 -11.1 12
02:25 1020 30.12 849 25.07 -1.4 29.4 50 -10.5 13.1
02:30 1020 30.12 849 25.07 -1.8 28.7 51 -10.7 12.7
02:35 1020 30.12 849 25.07 -1.7 28.9 52 -10.4 13.4
02:40 1020 30.12 849 25.07 -1.6 29.1 51 -10.4 13.2
02:45 1020 30.12 849 25.07 -1.6 29.2 52 -10.2 13.6
02:50 1020 30.12 849 25.07 -1.7 28.9 52 -10.2 13.6
02:55 1020 30.12 849 25.07 -2 28.4 54 -10.1 13.7
03:00 1020 30.12 849 25.07 -1.7 28.9 51 -10.5 13
03:05 1020 30.12 849 25.07 -1.7 28.9 51 -10.5 13.1
03:10 1020 30.12 849 25.07 -1.8 28.8 50 -10.8 12.5
03:15 1020 30.12 849 25.07 -1.6 29.1 49 -11 12.1
03:20 1020 30.12 849 25.07 -1.5 29.2 49 -11 12.2
03:25 1020 30.12 849 25.07 -1.6 29.2 48 -11.2 11.9
03:30 1020 30.12 849 25.07 -1.2 29.8 47 -11.2 11.8
03:35 1020 30.12 849 25.07 -0.8 30.6 45 -11.2 11.8
03:40 1020 30.12 849 25.07 -0.7 30.7 45 -11.2 11.8
03:45 1020 30.12 849 25.07 -0.5 31 46 -10.8 12.5
03:50 1020 30.12 849 25.07 -0.5 31 43 -11.7 10.9
03:55 1020 30.12 849 25.07 0.1 32.1 42 -11.4 11.5
04:00 1020 30.12 849 25.07 -0.1 31.9 42 -11.5 11.3
04:05 1020 30.12 849 25.07 -0.1 31.9 40 -12 10.4
04:10 1020 30.12 849 25.07 0.2 32.3 42 -11.4 11.4
04:15 1020 30.12 849 25.07 0 32 42 -11.5 11.4
04:20 1020 30.12 849 25.07 0.2 32.4 40 -11.8 10.8
04:25 1020 30.12 849 25.07 0.3 32.5 41 -11.6 11.2
04:30 1020 30.12 849 25.07 0.1 32.2 41 -11.6 11.1
04:35 1020 30.12 849 25.07 0 32.1 42 -11.5 11.2
04:40 1020 30.12 849 25.07 -0.2 31.7 43 -11.3 11.6
04:45 1020 30.12 849 25.07 -0.4 31.3 42 -11.7 10.9
04:50 1020 30.12 849 25.07 -0.5 31.1 44 -11.2 11.8
04:55 1020 30.12 849 25.07 -0.7 30.7 45 -11.2 11.9
05:00 1019 30.09 849 25.07 -0.8 30.6 45 -11.4 11.5
05:05 1020 30.12 849 25.07 -0.6 31 43 -11.8 10.8
05:10 1020 30.12 849 25.07 -0.2 31.6 42 -11.6 11.1
05:15 1019 30.09 849 25.07 -0.1 31.8 43 -11.3 11.7
05:20 1019 30.09 849 25.07 -0.4 31.3 46 -10.7 12.8
05:25 1019 30.09 849 25.07 -0.8 30.5 47 -10.8 12.5
05:30 1019 30.09 849 25.07 -0.8 30.6 47 -10.8 12.5
05:35 1019 30.09 849 25.07 -0.6 31 45 -11 12.3
05:40 1020 30.12 849 25.07 -0.5 31.1 49 -9.9 14.1
05:45 1019 30.09 849 25.07 -0.5 31.1 48 -10.3 13.5
05:50 1019 30.09 849 25.07 -0.6 31 50 -9.7 14.5
05:55 1020 30.12 849 25.07 -0.7 30.8 46 -10.9 12.4
06:00 1020 30.12 849 25.07 -0.3 31.4 45 -11 12.2
06:05 1019 30.09 849 25.07 -0.2 31.6 47 -10.3 13.5
06:10 1020 30.12 849 25.07 -0.4 31.3 44 -11.2 11.8
06:15 1020 30.12 849 25.07 -0.4 31.3 47 -10.3 13.5
06:20 1020 30.12 849 25.07 -0.5 31 46 -10.7 12.7
06:25 1020 30.12 849 25.07 -0.5 31.2 46 -10.8 12.5
06:30 1020 30.12 849 25.07 -0.4 31.3 44 -11.2 11.8
06:35 1020 30.12 849 25.07 -0.3 31.4 48 -10 14
06:40 1020 30.12 849 25.07 -0.9 30.3 48 -10.7 12.7
06:45 1020 30.12 849 25.07 -1.1 30 46 -11.2 11.8
06:50 1020 30.12 849 25.07 -0.9 30.4 47 -10.8 12.5
06:55 1020 30.12 849 25.07 -0.9 30.3 46 -11 12.1
07:00 1020 30.12 849 25.07 -0.9 30.4 50 -10 14
07:05 1020 30.12 849 25.07 -1.1 30.1 51 -9.9 14.2
07:10 1020 30.12 849 25.07 -1.3 29.7 50 -10.5 13.2
07:15 1020 30.12 849 25.07 -1.3 29.6 49 -10.7 12.7
07:20 1020 30.12 849 25.07 -1.5 29.3 50 -10.6 12.9
07:25 1020 30.12 849 25.07 -1.5 29.4 49 -10.7 12.7
07:30 1020 30.12 849 25.07 -1.4 29.5 47 -11.2 11.8
07:35 1020 30.12 849 25.07 -0.8 30.6 45 -11.4 11.5
07:40 1020 30.12 849 25.07 -0.5 31.1 44 -11.5 11.3
07:45 1020 30.12 849 25.07 -0.6 31 43 -11.6 11.2
07:50 1020 30.12 849 25.07 -0.4 31.2 44 -11.4 11.5
07:55 1020 30.12 849 25.07 -0.8 30.6 43 -11.8 10.8
08:00 1020 30.12 849 25.07 -0.6 31 42 -11.8 10.7
08:05 1020 30.12 849 25.07 -0.6 30.9 43 -11.8 10.8
08:10 1020 30.12 849 25.07 -0.6 30.9 44 -11.5 11.3
08:15 1020 30.12 849 25.07 -0.3 31.5 45 -10.9 12.3
08:20 1020 30.12 849 25.07 -0.3 31.4 47 -10.2 13.7
08:25 1020 30.12 849 25.07 -0.5 31.2 49 -10 13.9
08:30 1020 30.12 849 25.07 -0.5 31 47 -10.7 12.8
08:35 1020 30.12 849 25.07 -0.7 30.7 45 -11.4 11.6
08:40 1020 30.12 849 25.07 -0.7 30.7 45 -11.2 11.9
08:45 1020 30.12 849 25.07 -0.5 31 47 -10.5 13.2
08:50 1020 30.12 849 25.07 -0.4 31.3 44 -11.2 11.8
08:55 1020 30.12 849 25.07 -0 32 46 -10.4 13.2
09:00 1019 30.09 849 25.07 0.3 32.6 40 -11.7 10.9
09:05 1020 30.12 849 25.07 0.7 33.2 42 -10.9 12.4
09:10 1020 30.12 849 25.07 0.7 33.2 39 -11.7 10.9
09:15 1020 30.12 849 25.07 0.5 32.9 40 -11.6 11.1
09:20 1020 30.12 849 25.07 0.3 32.6 42 -11.1 12
09:25 1020 30.12 849 25.07 0.3 32.6 43 -10.8 12.6
09:30 1020 30.12 849 25.07 0.3 32.5 45 -10.2 13.7
09:35 1020 30.12 849 25.07 0.2 32.4 38 -12.3 9.8
09:40 1020 30.12 849 25.07 0.1 32.3 41 -11.6 11.2
09:45 1020 30.12 849 25.07 -0.2 31.7 42 -11.7 10.9
09:50 1020 30.12 849 25.07 0 32 44 -10.8 12.6
09:55 1020 30.12 849 25.07 0.1 32.3 41 -11.8 10.8
10:00 1020 30.12 849 25.07 0.4 32.8 46 -10 14.1
10:05 1020 30.12 849 25.07 0.4 32.7 45 -10.1 13.8
10:10 1020 30.12 849 25.07 0.2 32.3 46 -10.2 13.6
10:15 1020 30.12 849 25.07 0.2 32.4 43 -11 12.2
10:20 1020 30.12 849 25.07 0.3 32.6 44 -10.5 13.1
10:25 1020 30.12 849 25.07 -0 31.9 42 -11.5 11.4
10:30 1020 30.12 849 25.07 0.1 32.2 43 -10.9 12.4
10:35 1020 30.12 849 25.07 0.5 32.9 44 -10.4 13.3
10:40 1020 30.12 849 25.07 0.5 33 40 -11.5 11.3
10:45 1020 30.12 849 25.07 0.8 33.4 37 -12.2 10.1
10:50 1020 30.12 849 25.07 1.2 34.2 35 -12.6 9.4
10:55 1020 30.12 849 25.07 1.5 34.7 37 -11.8 10.7
11:00 1020 30.12 849 25.07 1.4 34.5 39 -11.2 11.9
11:05 1020 30.12 849 25.07 1.3 34.4 42 -10.4 13.4
11:10 1020 30.12 849 25.07 1.2 34.1 42 -10.3 13.4
11:15 1020 30.12 849 25.07 1 33.9 41 -10.7 12.7
11:20 1020 30.12 849 25.07 1 33.8 43 -10.4 13.4
11:25 1019 30.09 849 25.07 1.2 34.1 39 -11.2 11.8
11:30 1019 30.09 849 25.07 1.7 35.1 39 -10.9 12.4
11:35 1019 30.09 849 25.07 2.3 36.1 37 -10.9 12.3
11:40 1019 30.09 849 25.07 3.2 37.7 35 -10.7 12.7
11:50 1019 30.09 849 25.07 3.3 38 33 -11.4 11.5
11:55 1019 30.09 849 25.07 3 37.4 35 -10.9 12.4
12:00 1019 30.09 849 25.07 3.4 38.1 34 -11.2 11.8
12:05 1019 30.09 849 25.07 3.6 38.5 31 -12 10.4
12:10 1020 30.12 849 25.07 3.7 38.6 33 -11.2 11.9
12:15 1019 30.09 849 25.07 3.8 38.9 34 -10.8 12.5
12:20 1019 30.09 849 25.07 3.4 38.1 36 -10.3 13.5
12:25 1019 30.09 849 25.07 3.5 38.3 36 -10.1 13.9
12:30 1019 30.09 849 25.07 3.9 39 32 -11.4 11.5
12:35 1019 30.09 849 25.07 3.3 38 33 -11.4 11.5
12:40 1019 30.09 848 25.04 3.4 38.2 36 -10.2 13.7
12:45 1019 30.09 848 25.04 3.4 38.2 37 -9.8 14.3
12:50 1019 30.09 848 25.04 3.3 37.9 40 -9 15.8
12:55 1019 30.09 848 25.04 3.2 37.8 41 -8.8 16.1
13:00 1019 30.09 848 25.04 3.3 38 43 -8.2 17.2
13:05 1019 30.09 848 25.04 3.6 38.5 39 -9.2 15.4
13:10 1019 30.09 848 25.04 3.8 38.9 37 -9.6 14.7
13:15 1019 30.09 848 25.04 3.7 38.6 37 -9.7 14.5
13:20 1018 30.06 848 25.04 3.7 38.7 37 -9.6 14.8
13:25 1018 30.06 848 25.04 3.6 38.4 39 -9.2 15.4
13:30 1018 30.06 847 25.01 3.6 38.6 37 -9.6 14.7
13:35 1018 30.06 847 25.01 4 39.2 34 -10.5 13.1
13:40 1018 30.06 847 25.01 4.4 40 34 -10.2 13.7
13:45 1018 30.06 847 25.01 4.8 40.6 31 -11 12.3
13:50 1018 30.06 847 25.01 4.7 40.5 31 -11 12.2
13:55 1018 30.06 847 25.01 5.1 41.1 30 -10.9 12.3
14:00 1018 30.06 847 25.01 5.3 41.5 28 -11.6 11.1
14:05 1018 30.06 847 25.01 5.1 41.3 30 -11.1 12
14:10 1018 30.06 847 25.01 4.7 40.4 31 -11.3 11.7
14:15 1018 30.06 847 25.01 4.7 40.4 32 -10.6 12.9
14:20 1018 30.06 847 25.01 4.9 40.8 37 -8.4 16.8
14:25 1018 30.06 847 25.01 4.9 40.8 42 -6.9 19.5
14:30 1018 30.06 847 25.01 4.3 39.7 45 -6.7 19.9
14:35 1018 30.06 847 25.01 3.9 39 45 -7.1 19.3
14:40 1018 30.06 847 25.01 3.8 38.8 45 -7 19.5
14:45 1018 30.06 847 25.01 3.7 38.7 45 -7.1 19.3
14:50 1018 30.06 847 25.01 3.5 38.3 43 -7.9 17.8
14:55 1018 30.06 847 25.01 3.5 38.4 43 -8 17.7
15:00 1018 30.06 847 25.01 3.9 39.1 43 -7.5 18.4
15:05 1018 30.06 847 25.01 4.8 40.6 38 -8.2 17.2
15:10 1018 30.06 847 25.01 5.6 42 37 -7.9 17.8
15:15 1018 30.06 847 25.01 5.7 42.2 39 -7.2 19
15:20 1018 30.06 847 25.01 5.2 41.3 39 -7.5 18.4
15:25 1017 30.03 847 25.01 4.6 40.2 40 -7.9 17.8
15:30 1017 30.03 847 25.01 4.2 39.6 42 -7.6 18.3
15:35 1017 30.03 846 24.98 4 39.2 42 -7.8 18
15:40 1017 30.03 846 24.98 3.8 38.9 43 -7.8 18
15:45 1017 30.03 846 24.98 3.7 38.7 45 -7.1 19.1
15:50 1017 30.03 846 24.98 3.5 38.4 42 -8.1 17.5
15:55 1017 30.03 846 24.98 3.9 39 44 -7.2 19.1
16:00 1017 30.03 846 24.98 3.5 38.3 45 -7.4 18.7
16:05 1017 30.03 846 24.98 3.6 38.5 45 -7.3 18.9
16:10 1017 30.03 846 24.98 3.7 38.7 42 -7.9 17.7
16:15 1017 30.03 846 24.98 4 39.2 44 -7.2 19.1
16:20 1017 30.03 846 24.98 4 39.1 43 -7.4 18.7
16:25 1017 30.03 846 24.98 4.4 39.9 43 -7.1 19.2
16:30 1017 30.03 846 24.98 4.9 40.7 42 -7 19.4
16:35 1017 30.03 846 24.98 5.1 41.2 43 -6.6 20.1
16:40 1017 30.03 846 24.98 5.3 41.5 42 -6.6 20.1
16:45 1017 30.03 846 24.98 5.1 41.1 43 -6.5 20.4
16:50 1017 30.03 846 24.98 4.9 40.7 44 -6.5 20.2
16:55 1017 30.03 846 24.98 4.6 40.3 44 -6.5 20.3
17:00 1017 30.03 846 24.98 4.1 39.4 45 -6.7 20
17:05 1017 30.03 846 24.98 4 39.2 42 -7.7 18.2
17:10 1017 30.03 846 24.98 4 39.2 45 -7 19.4
17:15 1017 30.03 846 24.98 3.7 38.7 45 -7.1 19.2
17:20 1017 30.03 846 24.98 3.6 38.5 44 -7.5 18.6
17:25 1017 30.03 846 24.98 3.3 38 47 -7 19.4
17:30 1017 30.03 846 24.98 3.2 37.7 47 -7 19.4
17:35 1017 30.03 846 24.98 3.1 37.7 47 -7 19.4
17:40 1017 30.03 846 24.98 3 37.5 47 -7.2 19.1
17:45 1017 30.03 846 24.98 2.8 37 51 -6.5 20.4
17:50 1017 30.03 846 24.98 2.6 36.7 50 -6.9 19.6
17:55 1017 30.03 846 24.98 2.4 36.3 50 -7 19.3
18:00 1017 30.03 846 24.98 2.1 35.8 52 -6.7 20
18:05 1017 30.03 846 24.98 2 35.6 53 -6.6 20.1
18:10 1017 30.03 846 24.98 2 35.6 53 -6.6 20
18:15 1017 30.03 846 24.98 2.2 35.9 52 -6.8 19.8
18:20 1017 30.03 846 24.98 2.1 35.9 53 -6.6 20.2
18:25 1017 30.03 846 24.98 2.2 36 54 -6.2 20.9
18:30 1017 30.03 846 24.98 2.2 35.9 52 -6.7 20
18:35 1017 30.03 846 24.98 2.2 35.9 48 -7.8 18
18:40 1016 30 846 24.98 2 35.6 48 -7.8 18
18:45 1016 30 846 24.98 1.9 35.3 50 -7.6 18.3
18:50 1016 30 845 24.95 1.8 35.3 52 -7 19.3
18:55 1016 30 845 24.95 2 35.6 52 -6.9 19.5
19:00 1016 30 845 24.95 2.1 35.7 47 -8.2 17.2
19:05 1016 30 845 24.95 2.3 36.1 45 -8.5 16.7
19:10 1016 30 845 24.95 2.5 36.6 39 -10.1 13.8
19:15 1016 30 845 24.95 2.6 36.7 47 -7.6 18.4
19:20 1016 30 845 24.95 1.5 34.7 52 -7.4 18.8
19:25 1016 30 845 24.95 1.1 34 49 -8.4 16.9
19:30 1016 30 845 24.95 1.7 35.1 40 -10.5 13.1
19:35 1016 30 845 24.95 2.4 36.3 39 -10.2 13.6
19:40 1016 30 845 24.95 2.7 36.8 37 -10.5 13.1
19:45 1016 30 845 24.95 2.4 36.3 44 -8.7 16.3
19:50 1016 30 846 24.98 2.2 36 43 -9.1 15.6
19:55 1016 30 845 24.95 2.3 36.2 45 -8.5 16.6
20:00 1016 30 846 24.98 2.1 35.8 45 -8.7 16.3
20:05 1016 30 846 24.98 2.1 35.8 47 -8 17.5
20:10 1016 30 846 24.98 2 35.6 44 -9 15.8
20:15 1016 30 846 24.98 2.2 35.9 44 -8.9 15.9
20:20 1016 30 845 24.95 2.7 36.8 36 -10.9 12.4
20:25 1016 30 845 24.95 3.2 37.8 40 -9 15.8
20:30 1016 30 845 24.95 2.7 36.9 47 -7.6 18.3
20:35 1016 30 845 24.95 2.3 36.2 46 -8 17.5
20:40 1016 30 845 24.95 2.4 36.4 41 -9.5 14.8
20:45 1016 30 845 24.95 2.6 36.6 43 -8.9 15.9
20:50 1016 30 845 24.95 2.7 36.9 42 -8.8 16.1
20:55 1016 30 845 24.95 2.4 36.3 46 -8.1 17.5
21:00 1016 30 845 24.95 2.2 36 42 -9.5 14.8
21:05 1016 30 845 24.95 2.4 36.2 45 -8.4 16.9
21:10 1016 30 845 24.95 2.4 36.3 43 -8.9 16.1
21:15 1016 30 845 24.95 2.6 36.7 46 -7.8 18
21:20 1016 30 845 24.95 2.6 36.6 42 -9.2 15.5
21:25 1016 30 845 24.95 3.3 37.9 40 -9.2 15.5
21:30 1016 30 845 24.95 3.1 37.6 37 -10.2 13.6
21:35 1016 30 845 24.95 3.2 37.8 43 -8.2 17.3
21:40 1016 30 845 24.95 2 35.7 54 -6.3 20.6
21:45 1016 30 845 24.95 0.9 33.7 49 -8.6 16.5
21:50 1016 30 845 24.95 2.1 35.7 37 -11.1 12.1
21:55 1016 30 845 24.95 3.5 38.3 33 -11.2 11.8
22:00 1016 30 845 24.95 3.8 38.9 37 -9.6 14.7
22:05 1016 30 845 24.95 3.4 38.2 40 -9 15.9
22:10 1016 30 845 24.95 3.1 37.6 42 -8.5 16.7
22:15 1016 30 845 24.95 2.6 36.7 46 -7.8 17.9
22:20 1016 30 845 24.95 2.4 36.3 45 -8.4 16.9
22:25 1016 30 845 24.95 2.3 36.1 44 -8.8 16.1
22:30 1016 30 845 24.95 2.4 36.2 44 -8.6 16.5
22:35 1016 30 845 24.95 2.4 36.3 41 -9.6 14.7
22:40 1016 30 845 24.95 2.6 36.7 41 -9.2 15.4
22:45 1016 30 845 24.95 2.7 36.8 39 -9.9 14.2
22:50 1016 30 845 24.95 3.7 38.6 32 -11.6 11.1
22:55 1016 30 845 24.95 5.7 42.2 26 -12.6 9.3
23:00 1016 30 845 24.95 6.6 43.9 25 -12.2 10
23:05 1016 30 845 24.95 6.9 44.4 24 -12.3 9.8
23:10 1016 30 845 24.95 7.2 44.9 25 -11.8 10.8
23:15 1016 30 845 24.95 7.3 45.1 23 -12.3 9.9
23:20 1015 29.97 845 24.95 7.4 45.3 23 -12.4 9.8
23:25 1015 29.97 845 24.95 7.7 45.8 23 -12.4 9.7
23:30 1015 29.97 845 24.95 7.9 46.2 23 -12.3 9.9
23:35 1015 29.97 844 24.92 7.9 46.2 23 -11.8 10.8
23:40 1015 29.97 844 24.92 7.8 46.1 24 -11.8 10.8
23:45 1015 29.97 844 24.92 7.7 45.8 25 -11.4 11.5
23:50 1015 29.97 844 24.92 7.3 45.2 27 -10.7 12.8
23:55 1015 29.97 844 24.92 6.7 44 30 -9.5 14.9
24:00 1015 29.97 844 24.92 5.9 42.6 28 -11.4 11.6